Time;durP1;ratioP1;P1;durP2;ratioP2;P2;SDS_P1;SDS_P2;PMS_P1;PMS_P2;Temp;Humidity;BMP_temperature;BMP_pressure;BME280_temperature;BME280_humidity;BME280_pressure;Samples;Min_cycle;Max_cycle;Signal;HPM_P1;HPM_P2
2023/07/20 10:45:35;;;;;;;;;;;12.60;60.10;;;;;;3303830;26;20007;-73
2023/07/20 10:48:05;;;;;;;;;;;12.50;61.20;;;;;;5068664;28;20464;-79
2023/07/20 10:50:35;;;;;;;;;;;12.40;62.00;;;;;;5070633;28;19944;-79
2023/07/20 10:53:15;;;;;;;;;;;12.40;62.10;;;;;;5054114;28;19946;-76
2023/07/20 10:55:43;;;;;;;;;;;12.30;62.20;;;;;;5071853;28;19909;-73
2023/07/20 10:58:17;;;;;;;;;;;12.40;61.90;;;;;;5071691;28;19908;-76
2023/07/20 11:00:57;;;;;;;;;;;12.30;60.70;;;;;;5070631;28;20007;-74
2023/07/20 11:03:30;;;;;;;;;;;12.30;59.80;;;;;;5052735;28;19952;-75
2023/07/20 11:05:58;;;;;;;;;;;12.30;58.70;;;;;;5071587;28;19916;-73
2023/07/20 11:08:54;;;;;;;;;;;12.30;58.60;;;;;;5053383;28;19915;-73
2023/07/20 11:11:25;;;;;;;;;;;12.30;58.10;;;;;;5033893;28;19959;-73
2023/07/20 11:13:56;;;;;;;;;;;12.30;58.00;;;;;;5049852;28;19963;-74
2023/07/20 11:16:35;;;;;;;;;;;12.30;57.90;;;;;;5051075;28;19913;-74
2023/07/20 11:19:02;;;;;;;;;;;12.30;57.90;;;;;;5070634;28;19991;-72
2023/07/20 11:21:30;;;;;;;;;;;12.30;57.70;;;;;;5053188;28;19960;-74
2023/07/20 11:23:56;;;;;;;;;;;12.30;57.60;;;;;;5070730;28;20020;-76
2023/07/20 11:26:23;;;;;;;;;;;12.20;57.60;;;;;;5070649;28;19909;-74
2023/07/20 11:28:51;;;;;;;;;;;12.20;57.80;;;;;;5069901;28;20454;-78
2023/07/20 11:31:19;;;;;;;;;;;12.20;58.20;;;;;;5051865;28;19960;-77
2023/07/20 11:33:46;;;;;;;;;;;12.20;58.40;;;;;;5070581;28;19927;-73
2023/07/20 11:36:13;;;;;;;;;;;12.20;58.80;;;;;;5070936;28;20404;-72
2023/07/20 11:38:46;;;;;;;;;;;12.10;59.30;;;;;;5068610;28;19908;-72
2023/07/20 11:41:13;;;;;;;;;;;12.00;59.50;;;;;;5052905;28;20278;-73
2023/07/20 11:43:39;;;;;;;;;;;12.00;60.20;;;;;;5067445;28;20366;-73
2023/07/20 11:46:06;;;;;;;;;;;12.00;60.50;;;;;;5065147;28;20287;-73
2023/07/20 11:48:33;;;;;;;;;;;11.90;61.10;;;;;;5068054;28;20008;-79
2023/07/20 11:51:00;;;;;;;;;;;11.90;61.00;;;;;;5070626;28;20352;-77
2023/07/20 11:53:26;;;;;;;;;;;11.90;60.80;;;;;;5070300;28;19917;-77
2023/07/20 11:55:53;;;;;;;;;;;11.90;60.60;;;;;;5052913;28;19915;-77
2023/07/20 11:58:21;;;;;;;;;;;11.90;60.60;;;;;;5052932;28;19923;-87
2023/07/20 12:00:47;;;;;;;;;;;12.00;60.50;;;;;;5051780;28;20370;-77
2023/07/20 12:03:14;;;;;;;;;;;11.90;60.70;;;;;;5069165;28;20297;-77
2023/07/20 12:05:41;;;;;;;;;;;11.80;60.70;;;;;;5069929;28;20333;-78
2023/07/20 12:08:08;;;;;;;;;;;11.70;61.60;;;;;;5069787;28;19916;-75
2023/07/20 12:10:34;;;;;;;;;;;11.70;61.70;;;;;;5070515;28;19921;-81
2023/07/20 12:13:03;;;;;;;;;;;11.60;61.90;;;;;;5070525;28;19964;-82
2023/07/20 12:15:31;;;;;;;;;;;11.70;62.00;;;;;;5052064;28;19955;-79
2023/07/20 12:17:59;;;;;;;;;;;11.70;61.80;;;;;;5035558;28;20390;-80
2023/07/20 12:20:29;;;;;;;;;;;11.50;62.10;;;;;;5046255;28;19970;-77
2023/07/20 12:23:14;;;;;;;;;;;11.50;62.80;;;;;;5049916;28;19917;-76
2023/07/20 12:25:41;;;;;;;;;;;11.50;63.40;;;;;;5055352;28;19920;-73
2023/07/20 12:28:08;;;;;;;;;;;11.60;63.10;;;;;;5035097;28;19924;-75
2023/07/20 12:30:36;;;;;;;;;;;11.50;62.70;;;;;;5052186;28;19912;-76
2023/07/20 12:33:03;;;;;;;;;;;11.60;62.80;;;;;;5050648;28;19920;-79
2023/07/20 12:35:30;;;;;;;;;;;11.50;63.00;;;;;;5062299;28;19917;-78
2023/07/20 12:37:58;;;;;;;;;;;11.50;62.50;;;;;;5067858;28;19924;-76
2023/07/20 12:40:24;;;;;;;;;;;11.60;60.90;;;;;;5072619;28;19970;-84
2023/07/20 12:42:51;;;;;;;;;;;11.60;59.90;;;;;;5072349;28;19913;-82
2023/07/20 12:45:18;;;;;;;;;;;11.70;59.20;;;;;;5072156;28;19920;-82
2023/07/20 12:47:45;;;;;;;;;;;11.70;59.00;;;;;;5071914;28;20372;-84
2023/07/20 12:50:12;;;;;;;;;;;11.70;58.30;;;;;;5053394;28;19944;-84
2023/07/20 12:52:39;;;;;;;;;;;11.70;57.70;;;;;;5054132;28;19942;-84
2023/07/20 12:55:06;;;;;;;;;;;11.70;57.10;;;;;;5054154;28;19913;-82
2023/07/20 12:57:34;;;;;;;;;;;11.70;56.70;;;;;;5071733;28;20007;-83
2023/07/20 13:00:03;;;;;;;;;;;11.70;56.00;;;;;;5073291;28;19908;-83
2023/07/20 13:02:31;;;;;;;;;;;11.80;55.90;;;;;;5076492;28;19971;-84
2023/07/20 13:04:57;;;;;;;;;;;11.80;55.60;;;;;;5074215;28;19967;-84
2023/07/20 13:07:31;;;;;;;;;;;11.80;55.40;;;;;;5075946;28;20438;-84
2023/07/20 13:10:00;;;;;;;;;;;11.80;55.10;;;;;;5075526;28;19919;-84
2023/07/20 13:12:27;;;;;;;;;;;11.90;54.80;;;;;;5058716;28;19929;-84
2023/07/20 13:14:54;;;;;;;;;;;11.80;54.80;;;;;;5072431;28;20319;-82
2023/07/20 13:17:21;;;;;;;;;;;11.90;54.80;;;;;;5058175;28;19934;-82
2023/07/20 13:19:48;;;;;;;;;;;11.90;55.00;;;;;;5075676;28;20386;-84
2023/07/20 13:22:14;;;;;;;;;;;11.90;55.00;;;;;;5076037;28;19915;-84
2023/07/20 13:24:41;;;;;;;;;;;11.80;55.20;;;;;;5057675;28;19924;-84
2023/07/20 13:27:08;;;;;;;;;;;11.80;54.90;;;;;;5054377;28;19909;-84
2023/07/20 13:29:35;;;;;;;;;;;11.80;54.80;;;;;;5060953;28;20347;-84
2023/07/20 13:32:04;;;;;;;;;;;11.80;54.50;;;;;;5057543;28;19948;-84
2023/07/20 13:34:30;;;;;;;;;;;11.80;54.00;;;;;;5075240;28;19923;-84
2023/07/20 13:36:57;;;;;;;;;;;11.80;53.80;;;;;;5075494;28;19917;-84
2023/07/20 13:39:26;;;;;;;;;;;11.80;53.80;;;;;;5075703;28;20379;-84
2023/07/20 13:41:54;;;;;;;;;;;11.80;53.90;;;;;;5075652;28;19908;-84
2023/07/20 13:44:21;;;;;;;;;;;11.80;54.20;;;;;;5072262;28;19916;-83
2023/07/20 13:46:48;;;;;;;;;;;11.70;54.10;;;;;;5073135;28;19952;-83
2023/07/20 13:49:15;;;;;;;;;;;11.70;54.00;;;;;;5071519;28;20014;-83
2023/07/20 13:51:44;;;;;;;;;;;11.70;53.70;;;;;;5075222;28;19919;-83
2023/07/20 13:54:11;;;;;;;;;;;11.70;53.40;;;;;;5073327;28;19917;-83
2023/07/20 13:56:38;;;;;;;;;;;11.70;54.00;;;;;;5057453;28;19966;-83
2023/07/20 13:59:04;;;;;;;;;;;11.60;54.30;;;;;;5056719;28;20366;-84
2023/07/20 14:01:34;;;;;;;;;;;11.60;55.20;;;;;;5057161;28;19971;-84
2023/07/20 14:04:00;;;;;;;;;;;11.50;56.80;;;;;;5074968;28;20007;-83
2023/07/20 14:06:29;;;;;;;;;;;11.50;57.20;;;;;;5074100;28;19923;-83
2023/07/20 14:08:56;;;;;;;;;;;11.50;57.60;;;;;;5053478;28;19912;-83
2023/07/20 14:11:23;;;;;;;;;;;11.40;57.90;;;;;;5072380;28;20270;-83
2023/07/20 14:13:53;;;;;;;;;;;11.40;58.00;;;;;;5056475;28;20374;-83
2023/07/20 14:16:23;;;;;;;;;;;11.30;58.90;;;;;;5055450;28;19919;-83
2023/07/20 14:18:50;;;;;;;;;;;11.20;59.00;;;;;;5055361;28;20416;-83
2023/07/20 14:21:17;;;;;;;;;;;11.20;58.60;;;;;;5074437;28;19912;-83
2023/07/20 14:23:48;;;;;;;;;;;11.20;58.80;;;;;;5073566;28;19995;-83
2023/07/20 14:26:14;;;;;;;;;;;11.10;58.70;;;;;;5074354;28;20288;-84
2023/07/20 14:28:41;;;;;;;;;;;11.10;58.20;;;;;;5057051;28;19912;-83
2023/07/20 14:31:08;;;;;;;;;;;11.20;58.30;;;;;;5056272;28;19912;-83
2023/07/20 14:33:35;;;;;;;;;;;11.10;58.60;;;;;;5074569;28;19955;-83
2023/07/20 14:36:02;;;;;;;;;;;11.10;58.70;;;;;;5056655;28;19912;-83
2023/07/20 14:38:29;;;;;;;;;;;11.00;59.10;;;;;;5074075;28;20019;-84
2023/07/20 14:40:56;;;;;;;;;;;11.00;59.70;;;;;;5074593;28;19974;-83
2023/07/20 14:43:22;;;;;;;;;;;11.00;59.60;;;;;;5057005;28;19915;-83
2023/07/20 14:45:49;;;;;;;;;;;11.00;59.60;;;;;;5056034;28;19966;-84
2023/07/20 14:48:16;;;;;;;;;;;10.90;59.70;;;;;;5056779;28;20333;-84
2023/07/20 14:50:45;;;;;;;;;;;11.00;59.50;;;;;;5056510;28;19954;-83
2023/07/20 14:53:12;;;;;;;;;;;11.00;58.90;;;;;;5074654;28;20275;-83
2023/07/20 14:55:39;;;;;;;;;;;10.90;59.60;;;;;;5073148;28;19940;-83
2023/07/20 14:58:06;;;;;;;;;;;10.80;60.00;;;;;;5056802;28;19908;-84
2023/07/20 15:00:33;;;;;;;;;;;10.80;60.30;;;;;;5056337;28;19909;-83
2023/07/20 15:02:59;;;;;;;;;;;10.80;61.40;;;;;;5070241;28;19938;-83
2023/07/20 15:05:26;;;;;;;;;;;10.70;62.00;;;;;;5056612;28;19912;-83
2023/07/20 15:07:53;;;;;;;;;;;10.70;63.60;;;;;;5074580;28;19904;-83
2023/07/20 15:10:20;;;;;;;;;;;10.70;64.10;;;;;;5074080;28;20343;-83
2023/07/20 15:12:47;;;;;;;;;;;10.70;64.20;;;;;;5055950;28;19920;-83
2023/07/20 15:15:14;;;;;;;;;;;10.70;63.70;;;;;;5073108;28;19913;-84
2023/07/20 15:17:42;;;;;;;;;;;10.70;63.00;;;;;;5039305;28;19909;-83
2023/07/20 15:20:09;;;;;;;;;;;10.70;62.20;;;;;;5056134;28;19909;-82
2023/07/20 15:22:36;;;;;;;;;;;10.70;61.80;;;;;;5056118;28;19916;-83
2023/07/20 15:25:04;;;;;;;;;;;10.80;61.20;;;;;;5073144;28;20405;-83
2023/07/20 15:27:31;;;;;;;;;;;10.80;61.10;;;;;;5055632;28;19939;-83
2023/07/20 15:29:57;;;;;;;;;;;10.90;61.20;;;;;;5055964;28;19915;-83
2023/07/20 15:32:24;;;;;;;;;;;11.00;60.90;;;;;;5073631;28;19985;-83
2023/07/20 15:34:51;;;;;;;;;;;11.00;61.70;;;;;;5055110;28;19918;-83
2023/07/20 15:37:18;;;;;;;;;;;11.00;61.60;;;;;;5038729;28;20005;-83
2023/07/20 15:39:44;;;;;;;;;;;11.10;61.20;;;;;;5070045;28;20321;-83
2023/07/20 15:42:11;;;;;;;;;;;11.10;60.90;;;;;;5071346;28;19912;-83
2023/07/20 15:44:38;;;;;;;;;;;11.20;61.00;;;;;;5072181;28;19970;-83
2023/07/20 15:47:06;;;;;;;;;;;11.20;60.10;;;;;;5073017;28;19970;-83
2023/07/20 15:49:35;;;;;;;;;;;11.20;60.00;;;;;;5056148;28;19916;-83
2023/07/20 15:52:02;;;;;;;;;;;11.20;59.10;;;;;;5073523;28;20251;-84
2023/07/20 15:54:29;;;;;;;;;;;11.20;58.10;;;;;;5072053;28;19924;-83
2023/07/20 15:56:56;;;;;;;;;;;11.10;57.80;;;;;;5055290;28;19995;-83
2023/07/20 15:59:22;;;;;;;;;;;11.20;58.10;;;;;;5055465;28;20419;-83
2023/07/20 16:01:49;;;;;;;;;;;11.20;57.60;;;;;;5072969;28;19951;-83
2023/07/20 16:04:16;;;;;;;;;;;11.20;57.40;;;;;;5071805;28;19919;-83
2023/07/20 16:06:42;;;;;;;;;;;11.20;57.50;;;;;;5054974;28;20370;-83
2023/07/20 16:09:09;;;;;;;;;;;11.20;57.20;;;;;;5055423;28;19908;-83
2023/07/20 16:11:36;;;;;;;;;;;11.20;56.70;;;;;;5054349;28;19913;-83
2023/07/20 16:14:03;;;;;;;;;;;11.20;56.80;;;;;;5072257;28;19920;-83
2023/07/20 16:16:30;;;;;;;;;;;11.20;56.20;;;;;;5055075;28;20066;-82
2023/07/20 16:18:57;;;;;;;;;;;11.20;56.60;;;;;;5038632;28;19962;-83
2023/07/20 16:21:24;;;;;;;;;;;11.10;57.70;;;;;;5072970;28;19908;-83
2023/07/20 16:23:51;;;;;;;;;;;11.10;59.70;;;;;;5068315;28;19913;-84
2023/07/20 16:26:17;;;;;;;;;;;11.10;61.70;;;;;;5066453;28;19916;-83
2023/07/20 16:28:45;;;;;;;;;;;11.00;61.20;;;;;;5071353;28;19918;-83
2023/07/20 16:31:15;;;;;;;;;;;10.90;60.90;;;;;;5072354;28;20363;-83
2023/07/20 16:33:42;;;;;;;;;;;10.80;60.30;;;;;;5068710;28;19920;-82
2023/07/20 16:36:12;;;;;;;;;;;10.80;60.60;;;;;;5070807;28;19927;-83
2023/07/20 16:38:39;;;;;;;;;;;10.90;60.50;;;;;;5071937;28;19912;-82
2023/07/20 16:41:06;;;;;;;;;;;10.90;60.50;;;;;;5054411;28;20023;-82
2023/07/20 16:43:34;;;;;;;;;;;10.90;60.70;;;;;;5054410;28;20359;-82
2023/07/20 16:46:04;;;;;;;;;;;10.80;61.00;;;;;;5071396;28;20391;-82
2023/07/20 16:48:31;;;;;;;;;;;10.80;60.30;;;;;;5071785;28;20009;-82
2023/07/20 16:50:58;;;;;;;;;;;10.80;59.40;;;;;;5071370;28;19939;-83
2023/07/20 16:53:25;;;;;;;;;;;10.80;59.10;;;;;;5072393;28;20382;-83
2023/07/20 16:55:52;;;;;;;;;;;10.90;58.60;;;;;;5054318;28;19920;-82
2023/07/20 16:58:19;;;;;;;;;;;10.80;58.50;;;;;;5070428;28;19917;-82
2023/07/20 17:00:48;;;;;;;;;;;10.80;60.40;;;;;;5054113;28;19922;-83
2023/07/20 17:03:15;;;;;;;;;;;10.80;58.80;;;;;;5070769;28;19999;-83
2023/07/20 17:05:42;;;;;;;;;;;10.80;58.50;;;;;;5071364;28;19919;-82
2023/07/20 17:08:09;;;;;;;;;;;10.80;58.00;;;;;;5072302;28;19935;-82
2023/07/20 17:10:36;;;;;;;;;;;10.80;57.70;;;;;;5054142;28;19967;-83
2023/07/20 17:13:04;;;;;;;;;;;10.80;56.40;;;;;;5072469;28;19916;-83
2023/07/20 17:15:34;;;;;;;;;;;10.90;56.20;;;;;;5054435;28;19982;-82
2023/07/20 17:18:01;;;;;;;;;;;10.90;56.00;;;;;;5053984;28;19919;-83
2023/07/20 17:20:27;;;;;;;;;;;10.90;55.60;;;;;;5054511;28;19959;-82
2023/07/20 17:22:54;;;;;;;;;;;10.90;55.20;;;;;;5053616;28;20337;-83
2023/07/20 17:25:21;;;;;;;;;;;10.90;55.00;;;;;;5054352;28;19912;-82
2023/07/20 17:27:48;;;;;;;;;;;10.90;55.00;;;;;;5068196;28;19956;-82
2023/07/20 17:30:15;;;;;;;;;;;10.90;54.90;;;;;;5070934;28;20003;-82
2023/07/20 17:32:41;;;;;;;;;;;10.90;55.40;;;;;;5054029;28;20007;-82
2023/07/20 17:35:12;;;;;;;;;;;10.90;55.70;;;;;;5052652;28;19912;-82
2023/07/20 17:37:40;;;;;;;;;;;10.90;55.80;;;;;;5071181;28;19961;-82
2023/07/20 17:40:10;;;;;;;;;;;10.80;56.00;;;;;;5071803;28;19912;-82
2023/07/20 17:42:38;;;;;;;;;;;10.80;56.00;;;;;;5070888;28;20378;-82
2023/07/20 17:45:05;;;;;;;;;;;10.80;55.90;;;;;;5072203;28;19920;-82
2023/07/20 17:47:32;;;;;;;;;;;10.80;55.80;;;;;;5057460;28;19916;-82
2023/07/20 17:49:58;;;;;;;;;;;10.80;55.60;;;;;;5075866;28;20286;-83
2023/07/20 17:52:26;;;;;;;;;;;10.80;55.60;;;;;;5057752;28;19916;-82
2023/07/20 17:54:53;;;;;;;;;;;10.80;55.40;;;;;;5057440;28;19920;-82
2023/07/20 17:57:19;;;;;;;;;;;10.80;55.60;;;;;;5075460;28;19915;-82
2023/07/20 17:59:46;;;;;;;;;;;10.80;56.50;;;;;;5057596;28;20314;-83
2023/07/20 18:02:13;;;;;;;;;;;10.80;57.00;;;;;;5066484;28;19913;-82
2023/07/20 18:04:39;;;;;;;;;;;10.80;56.90;;;;;;5075489;28;19912;-82
2023/07/20 18:07:07;;;;;;;;;;;10.80;56.90;;;;;;5073619;28;19991;-82
2023/07/20 18:09:33;;;;;;;;;;;10.80;56.90;;;;;;5040658;28;20378;-83
2023/07/20 18:12:00;;;;;;;;;;;10.90;56.70;;;;;;5075216;28;19920;-82
2023/07/20 18:14:27;;;;;;;;;;;10.80;56.70;;;;;;5074111;28;19921;-81
2023/07/20 18:16:54;;;;;;;;;;;10.90;56.70;;;;;;5074741;28;19909;-82
2023/07/20 18:19:20;;;;;;;;;;;10.90;56.60;;;;;;5075348;28;19982;-82
2023/07/20 18:21:47;;;;;;;;;;;10.90;56.80;;;;;;5054084;28;20015;-82
2023/07/20 18:24:14;;;;;;;;;;;10.90;56.50;;;;;;5074700;28;19947;-82
2023/07/20 18:26:41;;;;;;;;;;;10.90;56.30;;;;;;5075145;28;19908;-81
2023/07/20 18:29:07;;;;;;;;;;;11.00;56.70;;;;;;5074117;28;20011;-83
2023/07/20 18:31:34;;;;;;;;;;;11.00;56.50;;;;;;5074624;28;20002;-82
2023/07/20 18:34:01;;;;;;;;;;;11.00;56.50;;;;;;5056925;28;19927;-83
2023/07/20 18:36:27;;;;;;;;;;;11.00;56.20;;;;;;5056548;28;19919;-83
2023/07/20 18:38:54;;;;;;;;;;;11.00;57.00;;;;;;5056840;28;19913;-83
2023/07/20 18:41:22;;;;;;;;;;;11.00;57.20;;;;;;5073453;28;20275;-82
2023/07/20 18:43:49;;;;;;;;;;;11.00;57.40;;;;;;5057024;28;19923;-81
2023/07/20 18:46:18;;;;;;;;;;;11.00;57.60;;;;;;5053458;28;19928;-83
2023/07/20 18:48:47;;;;;;;;;;;11.00;57.40;;;;;;5062383;28;19932;-83
2023/07/20 18:51:14;;;;;;;;;;;11.10;57.20;;;;;;5071563;28;20015;-82
2023/07/20 18:53:42;;;;;;;;;;;11.10;56.90;;;;;;5070958;28;19920;-83
2023/07/20 18:56:08;;;;;;;;;;;11.00;56.40;;;;;;5071981;28;20129;-80
2023/07/20 18:58:35;;;;;;;;;;;11.10;56.40;;;;;;5072578;28;19916;-83
2023/07/20 19:01:02;;;;;;;;;;;11.00;56.70;;;;;;5068530;28;19917;-83
2023/07/20 19:03:29;;;;;;;;;;;11.00;56.80;;;;;;5073968;28;19956;-83
2023/07/20 19:05:56;;;;;;;;;;;11.10;57.00;;;;;;5056345;28;20444;-83
2023/07/20 19:08:23;;;;;;;;;;;11.00;56.70;;;;;;5073054;28;19908;-83
2023/07/20 19:10:49;;;;;;;;;;;11.10;57.00;;;;;;5072425;28;19912;-82
2023/07/20 19:13:18;;;;;;;;;;;11.10;57.10;;;;;;5056488;28;19926;-79
2023/07/20 19:15:49;;;;;;;;;;;11.10;57.20;;;;;;5068820;28;20291;-81
2023/07/20 19:18:15;;;;;;;;;;;11.10;57.40;;;;;;5054274;28;19916;-80
2023/07/20 19:20:42;;;;;;;;;;;11.10;58.40;;;;;;5059567;28;19908;-82
2023/07/20 19:23:10;;;;;;;;;;;11.10;58.00;;;;;;5035910;28;19916;-80
2023/07/20 19:25:37;;;;;;;;;;;11.10;57.80;;;;;;5052819;28;19999;-81
2023/07/20 19:28:04;;;;;;;;;;;11.10;57.40;;;;;;5052818;28;19952;-81
2023/07/20 19:30:31;;;;;;;;;;;11.10;57.50;;;;;;5054877;28;20472;-79
2023/07/20 19:32:58;;;;;;;;;;;11.10;57.40;;;;;;5072632;28;19920;-79
2023/07/20 19:35:25;;;;;;;;;;;11.10;57.60;;;;;;5055269;28;20341;-78
2023/07/20 19:37:52;;;;;;;;;;;11.20;57.30;;;;;;5039310;28;19919;-78
2023/07/20 19:40:19;;;;;;;;;;;11.10;57.00;;;;;;5073206;28;19909;-77
2023/07/20 19:42:49;;;;;;;;;;;11.20;57.00;;;;;;5073342;28;19909;-78
2023/07/20 19:45:15;;;;;;;;;;;11.10;57.10;;;;;;5056273;28;19920;-78
2023/07/20 19:47:42;;;;;;;;;;;11.20;57.20;;;;;;5073524;28;19998;-76
2023/07/20 19:50:10;;;;;;;;;;;11.10;57.20;;;;;;5055218;28;19913;-78
2023/07/20 19:52:39;;;;;;;;;;;11.20;57.30;;;;;;5071380;28;20285;-78
2023/07/20 19:55:06;;;;;;;;;;;11.20;57.40;;;;;;5073459;28;19913;-78
2023/07/20 19:57:33;;;;;;;;;;;11.20;57.30;;;;;;5072121;28;19919;-78
2023/07/20 20:00:00;;;;;;;;;;;11.20;57.50;;;;;;5072004;28;19962;-77
2023/07/20 20:02:26;;;;;;;;;;;11.20;57.60;;;;;;5073135;28;20367;-78
2023/07/20 20:04:53;;;;;;;;;;;11.10;58.20;;;;;;5070879;28;19966;-76
2023/07/20 20:07:20;;;;;;;;;;;11.10;58.70;;;;;;5054787;28;20340;-78
2023/07/20 20:09:47;;;;;;;;;;;11.10;59.10;;;;;;5068459;28;19916;-76
2023/07/20 20:12:13;;;;;;;;;;;11.20;59.10;;;;;;5069215;28;20259;-77
2023/07/20 20:14:42;;;;;;;;;;;11.10;59.20;;;;;;5071598;28;19920;-78
2023/07/20 20:17:08;;;;;;;;;;;11.10;60.20;;;;;;5070063;28;19912;-77
2023/07/20 20:19:35;;;;;;;;;;;11.10;59.70;;;;;;5075264;28;19912;-79
2023/07/20 20:22:03;;;;;;;;;;;11.10;59.30;;;;;;5072065;28;19939;-76
2023/07/20 20:24:33;;;;;;;;;;;11.10;59.10;;;;;;5068988;28;19912;-78
2023/07/20 20:27:01;;;;;;;;;;;11.10;59.10;;;;;;5054426;28;19955;-78
2023/07/20 20:29:28;;;;;;;;;;;11.10;59.10;;;;;;5071580;28;19909;-78
2023/07/20 20:31:55;;;;;;;;;;;11.10;59.10;;;;;;5070182;28;19916;-78
2023/07/20 20:34:21;;;;;;;;;;;11.10;59.40;;;;;;5069053;28;19920;-78
2023/07/20 20:36:48;;;;;;;;;;;11.10;59.80;;;;;;5070632;28;19919;-78
2023/07/20 20:39:15;;;;;;;;;;;11.10;59.90;;;;;;5072293;28;20006;-77
2023/07/20 20:41:46;;;;;;;;;;;11.10;60.00;;;;;;5072322;28;19934;-77
2023/07/20 20:44:17;;;;;;;;;;;11.20;59.90;;;;;;5072236;28;19909;-78
2023/07/20 20:46:44;;;;;;;;;;;11.10;59.80;;;;;;5071281;28;19913;-78
2023/07/20 20:49:11;;;;;;;;;;;11.20;60.10;;;;;;5071239;28;19920;-77
2023/07/20 20:51:40;;;;;;;;;;;11.20;60.00;;;;;;5071971;28;20390;-78
2023/07/20 20:54:08;;;;;;;;;;;11.20;60.30;;;;;;5054230;28;20571;-78
2023/07/20 20:56:35;;;;;;;;;;;11.20;60.30;;;;;;5070936;28;19966;-78
2023/07/20 20:59:03;;;;;;;;;;;11.20;60.40;;;;;;5037866;28;19912;-78
2023/07/20 21:01:48;;;;;;;;;;;11.20;60.60;;;;;;5041142;28;19982;-78
2023/07/20 21:04:14;;;;;;;;;;;11.20;60.90;;;;;;5041423;28;19927;-78
2023/07/20 21:06:41;;;;;;;;;;;11.30;61.20;;;;;;5063647;28;20041;-78
2023/07/20 21:09:08;;;;;;;;;;;11.40;61.40;;;;;;5061507;28;19916;-78
2023/07/20 21:11:35;;;;;;;;;;;11.40;61.60;;;;;;5071143;28;20019;-77
2023/07/20 21:14:01;;;;;;;;;;;11.40;61.70;;;;;;5071686;28;19963;-77
2023/07/20 21:16:28;;;;;;;;;;;11.40;62.00;;;;;;5072161;28;20041;-78
2023/07/20 21:18:55;;;;;;;;;;;11.40;62.30;;;;;;5071111;28;20366;-77
